Time;durP1;ratioP1;P1;durP2;ratioP2;P2;SDS_P1;SDS_P2;PMS_P1;PMS_P2;Temp;Humidity;BMP_temperature;BMP_pressure;BME280_temperature;BME280_humidity;BME280_pressure;Samples;Min_cycle;Max_cycle;Signal;HPM_P1;HPM_P2
2023/05/23 00:01:57;0.00;0.00;0.62;0.00;0.00;0.62;5.20;4.80;;;29.80;28.50;;;;;;2259775;61;20377;-62
2023/05/23 00:04:43;0.00;0.00;0.62;0.00;0.00;0.62;5.60;5.10;;;29.80;28.50;;;;;;2260241;61;21012;-61
2023/05/23 00:07:28;0.00;0.00;0.62;0.00;0.00;0.62;5.30;4.80;;;29.80;28.50;;;;;;2259879;61;20377;-64
2023/05/23 00:10:13;0.00;0.00;0.62;0.00;0.00;0.62;5.70;5.20;;;29.80;28.50;;;;;;2260021;61;20943;-60
2023/05/23 00:12:57;0.00;0.00;0.62;0.00;0.00;0.62;5.00;4.57;;;29.80;28.60;;;;;;2260756;61;20400;-62
2023/05/23 00:15:44;0.00;0.00;0.62;0.00;0.00;0.62;4.87;4.47;;;29.80;28.50;;;;;;2495811;53;20375;-63
2023/05/23 00:18:29;0.00;0.00;0.62;0.00;0.00;0.62;5.20;4.70;;;29.80;28.50;;;;;;2260483;61;20829;-60
2023/05/23 00:21:14;0.00;0.00;0.62;0.00;0.00;0.62;5.73;5.00;;;29.80;28.50;;;;;;2260042;61;20364;-66
2023/05/23 00:24:01;0.00;0.00;0.62;0.00;0.00;0.62;5.23;4.83;;;29.80;28.50;;;;;;2259415;61;20956;-59
2023/05/23 00:26:46;0.00;0.00;0.62;0.00;0.00;0.62;5.77;5.27;;;29.80;28.50;;;;;;2491734;53;20424;-60
2023/05/23 00:29:31;0.00;0.00;0.62;0.00;0.00;0.62;4.83;4.33;;;29.80;29.00;;;;;;2255813;61;20370;-63
2023/05/23 00:32:17;0.00;0.00;0.62;0.00;0.00;0.62;4.80;4.40;;;29.80;28.50;;;;;;2256509;61;20362;-62
2023/05/23 00:35:02;0.00;0.00;0.62;0.00;0.00;0.62;5.30;4.87;;;29.80;28.50;;;;;;2256001;61;20405;-63
2023/05/23 00:37:49;0.00;0.00;0.62;0.00;0.00;0.62;4.60;4.20;;;29.80;28.50;;;;;;2255225;61;20370;-63
2023/05/23 00:40:34;0.00;0.00;0.62;0.00;0.00;0.62;5.03;4.63;;;29.80;28.50;;;;;;2256210;61;20424;-64
2023/05/23 00:43:20;0.00;0.00;0.62;0.00;0.00;0.62;4.70;4.30;;;29.80;28.50;;;;;;2256328;61;20952;-63
2023/05/23 00:46:05;0.00;0.00;0.62;0.00;0.00;0.62;5.20;4.70;;;29.80;28.50;;;;;;2255023;61;20436;-60
2023/05/23 00:48:52;0.00;0.00;0.62;0.00;0.00;0.62;5.37;4.87;;;29.80;28.50;;;;;;2256590;61;20892;-62
2023/05/23 00:51:37;0.00;0.00;0.62;0.00;0.00;0.62;5.20;4.70;;;29.80;28.50;;;;;;2255604;61;20366;-63
2023/05/23 00:54:26;0.00;0.00;0.62;0.00;0.00;0.62;5.37;4.50;;;29.70;28.50;;;;;;2256231;61;20390;-61
2023/05/23 00:57:12;0.00;0.00;0.62;0.00;0.00;0.62;5.00;4.60;;;29.70;28.50;;;;;;2256738;61;20354;-60
2023/05/23 00:59:57;0.00;0.00;0.62;0.00;0.00;0.62;5.67;5.10;;;29.70;28.40;;;;;;2255190;61;20355;-63
2023/05/23 01:02:44;0.00;0.00;0.62;0.00;0.00;0.62;5.77;5.27;;;29.70;28.40;;;;;;2256306;61;20365;-60
2023/05/23 01:05:31;0.00;0.00;0.62;0.00;0.00;0.62;5.87;5.37;;;29.80;28.50;;;;;;2256282;61;20460;-64
2023/05/23 01:08:15;0.00;0.00;0.62;0.00;0.00;0.62;5.63;5.13;;;29.70;29.00;;;;;;2255088;61;20455;-64
2023/05/23 01:11:06;0.00;0.00;0.62;0.00;0.00;0.62;6.20;5.70;;;29.70;28.40;;;;;;2255971;61;20358;-63
2023/05/23 01:13:58;0.00;0.00;0.62;0.00;0.00;0.62;6.17;5.57;;;29.70;28.90;;;;;;2256806;61;20405;-61
2023/05/23 01:16:50;0.00;0.00;0.62;0.00;0.00;0.62;6.50;5.90;;;29.70;28.50;;;;;;2260238;61;20420;-57
2023/05/23 01:19:57;0.00;0.00;0.62;0.00;0.00;0.62;7.47;5.80;;;29.70;28.40;;;;;;2259957;61;20357;-63
2023/05/23 01:23:21;0.00;0.00;0.62;0.00;0.00;0.62;7.03;6.33;;;29.70;28.40;;;;;;2255871;61;20784;-63
2023/05/23 01:26:22;0.00;0.00;0.62;0.00;0.00;0.62;6.07;5.57;;;29.70;28.40;;;;;;2243087;61;20392;-63
2023/05/23 01:29:13;0.00;0.00;0.62;0.00;0.00;0.62;7.40;6.70;;;29.70;28.40;;;;;;2239303;61;20364;-62
2023/05/23 01:32:01;0.00;0.00;0.62;0.00;0.00;0.62;5.93;5.43;;;29.70;28.40;;;;;;2243592;61;20465;-62
2023/05/23 01:34:46;0.00;0.00;0.62;0.00;0.00;0.62;6.47;5.87;;;29.70;28.40;;;;;;2243328;61;20421;-62
2023/05/23 01:37:31;0.00;0.00;0.62;0.00;0.00;0.62;6.60;5.70;;;29.70;28.40;;;;;;2255161;61;20792;-62
2023/05/23 01:40:16;0.00;0.00;0.62;0.00;0.00;0.62;6.80;6.20;;;29.70;28.90;;;;;;2256945;61;20372;-65
2023/05/23 01:43:01;0.00;0.00;0.62;0.00;0.00;0.62;6.83;6.23;;;29.70;28.30;;;;;;2259783;61;20415;-63
2023/05/23 01:45:48;0.00;0.00;0.62;0.00;0.00;0.62;6.53;5.97;;;29.70;28.40;;;;;;2259531;61;20385;-61
2023/05/23 01:48:33;0.00;0.00;0.62;0.00;0.00;0.62;5.50;5.00;;;29.70;28.30;;;;;;2257433;61;20772;-60
2023/05/23 01:51:19;0.00;0.00;0.62;0.00;0.00;0.62;6.00;5.50;;;29.70;28.40;;;;;;2259381;61;20361;-65
2023/05/23 01:54:05;0.00;0.00;0.62;0.00;0.00;0.62;5.80;5.40;;;29.70;28.30;;;;;;2257147;61;20400;-62
2023/05/23 01:56:51;0.00;0.00;0.62;0.00;0.00;0.62;5.90;5.30;;;29.60;28.30;;;;;;2260386;61;20465;-62
2023/05/23 01:59:37;0.00;0.00;0.62;0.00;0.00;0.62;5.87;5.37;;;29.60;28.20;;;;;;2255632;61;20449;-63
2023/05/23 02:02:23;0.00;0.00;0.62;0.00;0.00;0.62;8.13;6.40;;;29.60;28.30;;;;;;2257275;61;20913;-62
2023/05/23 02:05:10;0.00;0.00;0.62;0.00;0.00;0.62;6.50;5.90;;;29.60;28.20;;;;;;2256593;61;20443;-65
2023/05/23 02:07:54;0.00;0.00;0.62;0.00;0.00;0.62;7.53;5.50;;;29.60;28.20;;;;;;2256497;61;20376;-61
2023/05/23 02:10:39;0.00;0.00;0.62;0.00;0.00;0.62;6.30;5.80;;;29.60;28.20;;;;;;2256814;61;20357;-60
2023/05/23 02:13:24;0.00;0.00;0.62;0.00;0.00;0.62;6.30;5.80;;;29.60;28.20;;;;;;2259045;61;20380;-61
2023/05/23 02:16:10;0.00;0.00;0.62;0.00;0.00;0.62;6.00;5.50;;;29.70;28.30;;;;;;2257212;61;20338;-60
2023/05/23 02:18:56;0.00;0.00;0.62;0.00;0.00;0.62;6.27;5.77;;;29.60;28.20;;;;;;2259515;61;20385;-63
2023/05/23 02:21:40;0.00;0.00;0.62;0.00;0.00;0.62;6.37;5.83;;;29.60;28.20;;;;;;2259125;61;20373;-59
2023/05/23 02:24:25;0.00;0.00;0.62;0.00;0.00;0.62;5.77;5.27;;;29.60;28.20;;;;;;2257018;61;20428;-63
2023/05/23 02:27:09;0.00;0.00;0.62;0.00;0.00;0.62;5.47;5.07;;;29.60;28.20;;;;;;2260015;61;20415;-63
2023/05/23 02:29:54;0.00;0.00;0.62;0.00;0.00;0.62;5.90;5.40;;;29.60;28.20;;;;;;2255989;61;20357;-62
2023/05/23 02:32:39;0.00;0.00;0.62;0.00;0.00;0.62;5.77;5.27;;;29.60;28.20;;;;;;2260239;61;20365;-61
2023/05/23 02:35:25;0.00;0.00;0.62;0.00;0.00;0.62;6.17;5.57;;;29.60;28.20;;;;;;2256186;61;20499;-64
2023/05/23 02:38:10;0.00;0.00;0.62;0.00;0.00;0.62;5.37;4.93;;;29.60;28.20;;;;;;2256868;61;20588;-63
2023/05/23 02:40:56;0.00;0.00;0.62;0.00;0.00;0.62;6.00;5.50;;;29.60;28.20;;;;;;2259827;61;20771;-63
2023/05/23 02:43:41;0.00;0.00;0.62;0.00;0.00;0.62;5.37;4.97;;;29.60;28.20;;;;;;2255867;61;20384;-62
2023/05/23 02:46:26;0.00;0.00;0.62;0.00;0.00;0.62;5.00;4.60;;;29.60;28.10;;;;;;2256776;61;20416;-67
2023/05/23 02:49:11;0.00;0.00;0.62;0.00;0.00;0.62;5.37;4.80;;;29.60;28.10;;;;;;2256470;61;20365;-63
2023/05/23 02:51:57;0.00;0.00;0.62;0.00;0.00;0.62;5.27;4.87;;;29.60;28.10;;;;;;2256121;61;20396;-63
2023/05/23 02:54:42;0.00;0.00;0.62;0.00;0.00;0.62;5.63;5.10;;;29.60;28.10;;;;;;2256716;61;20389;-63
2023/05/23 02:57:27;0.00;0.00;0.62;0.00;0.00;0.62;5.13;4.73;;;29.50;28.00;;;;;;2256627;61;20833;-62
2023/05/23 03:00:14;0.00;0.00;0.62;0.00;0.00;0.62;5.10;4.60;;;29.50;28.00;;;;;;2259232;61;20365;-62
2023/05/23 03:03:01;0.00;0.00;0.62;0.00;0.00;0.62;5.10;4.67;;;29.50;28.10;;;;;;2256913;61;20479;-61
2023/05/23 03:05:47;0.00;0.00;0.62;0.00;0.00;0.62;4.63;4.23;;;29.50;28.10;;;;;;2255511;61;20446;-63
2023/05/23 03:08:33;0.00;0.00;0.62;0.00;0.00;0.62;4.23;3.90;;;29.50;28.00;;;;;;2256870;61;20372;-62
2023/05/23 03:11:18;0.00;0.00;0.62;0.00;0.00;0.62;4.83;4.43;;;29.50;28.00;;;;;;2257515;61;20419;-63
2023/05/23 03:14:03;0.00;0.00;0.62;0.00;0.00;0.62;4.60;4.20;;;29.50;28.00;;;;;;2259813;61;20443;-60
2023/05/23 03:16:48;0.00;0.00;0.62;0.00;0.00;0.62;4.73;4.33;;;29.50;28.00;;;;;;2257698;61;20361;-60
2023/05/23 03:19:32;0.00;0.00;0.62;0.00;0.00;0.62;4.00;3.70;;;29.50;28.00;;;;;;2259930;61;20398;-61
2023/05/23 03:22:17;0.00;0.00;0.62;0.00;0.00;0.62;4.87;4.40;;;29.50;28.00;;;;;;2260447;61;20761;-60
2023/05/23 03:25:05;0.00;0.00;0.62;0.00;0.00;0.62;4.60;4.10;;;29.50;28.00;;;;;;2257258;61;20442;-63
2023/05/23 03:27:51;0.00;0.00;0.62;0.00;0.00;0.62;4.53;4.13;;;29.50;28.00;;;;;;2259363;61;20388;-60
2023/05/23 03:30:36;0.00;0.00;0.62;0.00;0.00;0.62;4.17;3.77;;;29.50;28.00;;;;;;2260387;61;20419;-67
2023/05/23 03:33:21;0.00;0.00;0.62;0.00;0.00;0.62;5.30;3.87;;;29.50;27.90;;;;;;2257736;61;20376;-63
2023/05/23 03:36:06;0.00;0.00;0.62;0.00;0.00;0.62;5.57;4.23;;;29.50;27.90;;;;;;2259772;61;20412;-60
2023/05/23 03:38:52;0.00;0.00;0.62;0.00;0.00;0.62;4.30;3.90;;;29.50;27.90;;;;;;2257450;61;20392;-63
2023/05/23 03:41:38;0.00;0.00;0.62;0.00;0.00;0.62;4.83;4.43;;;29.50;27.90;;;;;;2257188;61;20926;-59
2023/05/23 03:44:22;0.00;0.00;0.62;0.00;0.00;0.62;4.37;3.97;;;29.50;27.90;;;;;;2260047;61;20384;-66
2023/05/23 03:47:08;0.00;0.00;0.62;0.00;0.00;0.62;3.80;3.50;;;29.50;27.90;;;;;;2257459;61;20467;-63
2023/05/23 03:49:55;0.00;0.00;0.62;0.00;0.00;0.62;4.57;4.20;;;29.50;27.90;;;;;;2256209;61;20447;-60
2023/05/23 03:52:40;0.00;0.00;0.62;0.00;0.00;0.62;5.07;4.60;;;29.40;27.80;;;;;;2257541;61;20380;-59
2023/05/23 03:55:25;0.00;0.00;0.62;0.00;0.00;0.62;3.87;3.57;;;29.50;27.90;;;;;;2257542;61;20384;-58
2023/05/23 03:58:12;0.00;0.00;0.62;0.00;0.00;0.62;4.30;3.90;;;29.40;27.80;;;;;;2256326;61;20442;-62
2023/05/23 04:01:00;0.00;0.00;0.62;0.00;0.00;0.62;4.10;3.80;;;29.40;27.80;;;;;;2260486;61;20411;-60
2023/05/23 04:03:45;0.00;0.00;0.62;0.00;0.00;0.62;4.30;3.90;;;29.50;27.90;;;;;;2256957;61;20408;-63
2023/05/23 04:06:30;0.00;0.00;0.62;0.00;0.00;0.62;4.13;3.73;;;29.40;27.80;;;;;;2256731;61;20427;-63
2023/05/23 04:09:16;0.00;0.00;0.62;0.00;0.00;0.62;3.70;3.40;;;29.40;27.80;;;;;;2259837;61;20360;-60
2023/05/23 04:12:04;0.00;0.00;0.62;0.00;0.00;0.62;4.30;3.90;;;29.40;27.80;;;;;;2256583;61;20476;-60
2023/05/23 04:14:51;0.00;0.00;0.62;0.00;0.00;0.62;3.90;3.60;;;29.40;27.80;;;;;;2257423;61;20385;-67
2023/05/23 04:17:37;0.00;0.00;0.62;0.00;0.00;0.62;4.00;3.70;;;29.40;27.80;;;;;;2257555;61;20361;-61
2023/05/23 04:20:23;0.00;0.00;0.62;0.00;0.00;0.62;4.33;3.87;;;29.40;27.80;;;;;;2255934;61;20376;-60
2023/05/23 04:23:07;0.00;0.00;0.62;0.00;0.00;0.62;3.70;3.40;;;29.40;27.80;;;;;;2257356;61;20769;-60
2023/05/23 04:25:56;0.00;0.00;0.62;0.00;0.00;0.62;3.80;3.37;;;29.40;27.70;;;;;;2256741;61;20431;-64
2023/05/23 04:28:48;0.00;0.00;0.62;0.00;0.00;0.62;4.37;3.97;;;29.40;27.80;;;;;;2257059;61;20468;-61
2023/05/23 04:31:34;0.00;0.00;0.62;0.00;0.00;0.62;3.70;3.40;;;29.40;27.80;;;;;;2257619;61;20361;-60
2023/05/23 04:34:21;0.00;0.00;0.62;0.00;0.00;0.62;3.60;3.30;;;29.40;27.70;;;;;;2256126;61;20385;-62
2023/05/23 04:37:06;0.00;0.00;0.62;0.00;0.00;0.62;3.67;3.33;;;29.40;27.70;;;;;;2257544;61;20369;-62
2023/05/23 04:39:51;0.00;0.00;0.62;0.00;0.00;0.62;3.70;3.40;;;29.40;27.70;;;;;;2257021;61;20520;-61
2023/05/23 04:42:50;0.00;0.00;0.62;0.00;0.00;0.62;3.40;3.03;;;29.30;27.70;;;;;;2256248;61;20397;-61
2023/05/23 04:45:53;0.00;0.00;0.62;0.00;0.00;0.62;4.13;3.73;;;29.30;27.70;;;;;;2260443;61;20791;-64
2023/05/23 04:49:03;0.00;0.00;0.62;0.00;0.00;0.62;3.60;3.30;;;29.30;27.70;;;;;;2256102;61;20388;-62
2023/05/23 04:51:47;0.00;0.00;0.62;0.00;0.00;0.62;4.37;3.97;;;29.40;27.70;;;;;;2257590;61;20449;-60
2023/05/23 04:54:52;0.00;0.00;0.62;0.00;0.00;0.62;3.70;3.40;;;29.30;27.70;;;;;;2257074;61;20377;-65
2023/05/23 04:57:38;0.00;0.00;0.62;0.00;0.00;0.62;3.80;3.40;;;29.30;27.70;;;;;;2256573;61;20416;-66
2023/05/23 05:00:25;0.00;0.00;0.62;0.00;0.00;0.62;5.40;3.80;;;29.30;27.70;;;;;;2256693;61;22071;-65
2023/05/23 05:03:10;0.00;0.00;0.62;0.00;0.00;0.62;3.63;3.33;;;29.30;27.70;;;;;;2259566;61;20408;-65
2023/05/23 05:06:01;0.00;0.00;0.62;0.00;0.00;0.62;3.50;3.20;;;29.30;27.70;;;;;;2256920;61;20377;-65
2023/05/23 05:08:46;0.00;0.00;0.62;0.00;0.00;0.62;3.70;3.40;;;29.30;27.70;;;;;;2260471;61;20418;-65
2023/05/23 05:11:31;0.00;0.00;0.62;0.00;0.00;0.62;4.53;4.03;;;29.30;27.70;;;;;;2256172;61;20812;-65
2023/05/23 05:14:16;0.00;0.00;0.62;0.00;0.00;0.62;3.27;2.97;;;29.30;27.70;;;;;;2257284;61;21000;-65
2023/05/23 05:17:02;0.00;0.00;0.62;0.00;0.00;0.62;3.47;3.17;;;29.30;27.60;;;;;;2260704;61;20742;-65
2023/05/23 05:19:55;0.00;0.00;0.62;0.00;0.00;0.62;3.77;3.47;;;29.30;27.70;;;;;;2255947;61;20361;-65
2023/05/23 05:22:42;0.00;0.00;0.62;0.00;0.00;0.62;3.63;3.30;;;29.30;27.70;;;;;;2257107;61;20411;-65
2023/05/23 05:25:34;0.00;0.00;0.62;0.00;0.00;0.62;3.30;3.00;;;29.30;27.70;;;;;;2256408;61;20384;-65
2023/05/23 05:28:20;0.00;0.00;0.62;0.00;0.00;0.62;4.87;4.07;;;29.20;27.60;;;;;;2257170;61;20445;-65
2023/05/23 05:31:08;0.00;0.00;0.62;0.00;0.00;0.62;4.50;4.10;;;29.20;27.60;;;;;;2257023;61;20437;-65
2023/05/23 05:33:54;0.00;0.00;0.62;0.00;0.00;0.62;3.43;3.13;;;29.20;27.50;;;;;;2255607;61;20469;-65
2023/05/23 05:36:46;0.00;0.00;0.62;0.00;0.00;0.62;4.43;4.03;;;29.20;27.50;;;;;;2257410;61;20364;-64
2023/05/23 05:39:33;0.00;0.00;0.62;0.00;0.00;0.62;4.20;3.80;;;29.30;27.60;;;;;;2256841;61;20375;-65
2023/05/23 05:42:18;0.00;0.00;0.62;0.00;0.00;0.62;3.40;3.00;;;29.20;27.50;;;;;;2256412;61;20495;-64
2023/05/23 05:45:04;0.00;0.00;0.62;0.00;0.00;0.62;3.50;3.20;;;29.20;27.50;;;;;;2257031;61;20465;-65
2023/05/23 05:47:51;0.00;0.00;0.62;0.00;0.00;0.62;3.87;3.47;;;29.20;27.60;;;;;;2259353;61;20598;-64
2023/05/23 05:50:38;0.00;0.00;0.62;0.00;0.00;0.62;3.80;3.50;;;29.20;27.50;;;;;;2256510;61;20357;-65
2023/05/23 05:53:22;0.00;0.00;0.62;0.00;0.00;0.62;3.20;2.90;;;29.20;27.50;;;;;;2257244;61;20369;-63
2023/05/23 05:56:09;0.00;0.00;0.62;0.00;0.00;0.62;3.10;2.80;;;29.20;27.50;;;;;;2256020;61;20509;-65
2023/05/23 05:58:56;0.00;0.00;0.62;0.00;0.00;0.62;3.20;2.73;;;29.20;27.50;;;;;;2256763;61;20397;-65
2023/05/23 06:01:43;0.00;0.00;0.62;0.00;0.00;0.62;4.80;3.80;;;29.20;27.50;;;;;;2257103;61;20782;-65
2023/05/23 06:04:30;0.00;0.00;0.62;0.00;0.00;0.62;3.40;3.10;;;29.20;27.50;;;;;;2256381;61;20392;-65
2023/05/23 06:07:16;0.00;0.00;0.62;0.00;0.00;0.62;3.33;3.03;;;29.20;27.50;;;;;;2257078;61;20381;-65
2023/05/23 06:10:01;0.00;0.00;0.62;0.00;0.00;0.62;2.97;2.70;;;29.20;27.60;;;;;;2259558;61;20384;-61
2023/05/23 06:12:48;0.00;0.00;0.62;0.00;0.00;0.62;3.40;3.00;;;29.10;27.50;;;;;;2260208;61;20357;-65
2023/05/23 06:15:32;0.00;0.00;0.62;0.00;0.00;0.62;3.10;2.80;;;29.10;27.50;;;;;;2260234;61;21036;-64
2023/05/23 06:18:17;0.00;0.00;0.62;0.00;0.00;0.62;2.90;2.57;;;29.10;27.50;;;;;;2255892;61;20423;-65
2023/05/23 06:21:02;0.00;0.00;0.62;0.00;0.00;0.62;3.53;3.23;;;29.20;27.50;;;;;;2257166;61;20369;-64
2023/05/23 06:23:48;0.00;0.00;0.62;0.00;0.00;0.62;3.33;3.03;;;29.10;27.50;;;;;;2256943;61;20843;-65
2023/05/23 06:26:32;0.00;0.00;0.62;0.00;0.00;0.62;2.90;2.60;;;29.20;27.50;;;;;;2259248;61;20394;-65
2023/05/23 06:29:18;0.00;0.00;0.62;0.00;0.00;0.62;3.10;2.80;;;29.10;27.50;;;;;;2256940;61;20356;-64
2023/05/23 06:32:04;0.00;0.00;0.62;0.00;0.00;0.62;3.17;2.87;;;29.10;27.50;;;;;;2259836;61;20369;-64
2023/05/23 06:34:49;0.00;0.00;0.62;0.00;0.00;0.62;2.70;2.40;;;29.20;27.60;;;;;;2256853;61;20377;-65
2023/05/23 06:37:33;0.00;0.00;0.62;0.00;0.00;0.62;3.17;2.87;;;29.10;27.50;;;;;;2260656;61;20353;-65
2023/05/23 06:40:19;0.00;0.00;0.62;0.00;0.00;0.62;3.33;2.90;;;29.10;27.50;;;;;;2255405;61;20364;-64
2023/05/23 06:43:03;0.00;0.00;0.62;0.00;0.00;0.62;3.37;3.07;;;29.10;27.50;;;;;;2257129;61;20360;-65
2023/05/23 06:45:59;0.00;0.00;0.62;0.00;0.00;0.62;2.70;2.37;;;29.10;27.50;;;;;;2260566;61;20381;-65
2023/05/23 06:48:46;0.00;0.00;0.62;0.00;0.00;0.62;2.80;2.40;;;29.10;27.50;;;;;;2256797;61;20365;-65
2023/05/23 06:51:31;0.00;0.00;0.62;0.00;0.00;0.62;2.77;2.50;;;29.10;27.50;;;;;;2261295;61;21128;-65
2023/05/23 06:54:17;0.00;0.00;0.62;0.00;0.00;0.62;3.03;2.57;;;29.10;27.50;;;;;;2257180;61;20377;-64
2023/05/23 06:57:03;0.00;0.00;0.62;0.00;0.00;0.62;3.63;3.00;;;29.10;27.60;;;;;;2257474;61;20404;-66
2023/05/23 06:59:48;0.00;0.00;0.62;0.00;0.00;0.62;2.53;2.17;;;29.10;27.50;;;;;;2260591;61;20901;-65
2023/05/23 07:02:34;0.00;0.00;0.62;0.00;0.00;0.62;3.47;3.17;;;29.10;27.50;;;;;;2256417;61;20460;-66
2023/05/23 07:05:22;0.00;0.00;0.62;0.00;0.00;0.62;2.87;2.47;;;29.10;27.50;;;;;;2257486;61;20439;-64
2023/05/23 07:08:09;0.00;0.00;0.62;0.00;0.00;0.62;3.10;2.80;;;29.10;27.50;;;;;;2257608;61;20443;-63
2023/05/23 07:10:54;0.00;0.00;0.62;0.00;0.00;0.62;2.93;2.63;;;29.10;27.60;;;;;;2256649;61;20450;-65
2023/05/23 07:13:55;0.00;0.00;0.62;0.00;0.00;0.62;3.43;2.57;;;29.10;27.60;;;;;;2257414;61;20384;-65
2023/05/23 07:16:53;0.00;0.00;0.62;0.00;0.00;0.62;3.27;2.50;;;29.10;27.60;;;;;;2256805;61;20793;-67
2023/05/23 07:19:40;0.00;0.00;0.62;0.00;0.00;0.62;3.07;2.77;;;29.10;27.60;;;;;;2257314;61;20407;-67
2023/05/23 07:22:24;0.00;0.00;0.62;0.00;0.00;0.62;2.73;2.47;;;29.10;27.60;;;;;;2257636;61;20889;-65
2023/05/23 07:25:10;0.00;0.00;0.62;0.00;0.00;0.62;2.60;2.40;;;29.10;27.60;;;;;;2256314;61;20472;-65
2023/05/23 07:27:55;0.00;0.00;0.62;0.00;0.00;0.62;3.13;2.83;;;29.00;27.50;;;;;;2258057;61;20357;-65
2023/05/23 07:30:41;0.00;0.00;0.62;0.00;0.00;0.62;2.43;2.20;;;29.00;27.50;;;;;;2257269;61;20452;-65
2023/05/23 07:33:26;0.00;0.00;0.62;0.00;0.00;0.62;2.37;2.00;;;29.00;27.50;;;;;;2257115;61;20460;-64
2023/05/23 07:36:18;0.00;0.00;0.62;0.00;0.00;0.62;2.40;2.20;;;29.00;27.50;;;;;;2257694;61;20349;-63
2023/05/23 07:39:03;0.00;0.00;0.62;0.00;0.00;0.62;2.77;2.50;;;29.00;27.50;;;;;;2259224;61;20369;-64
2023/05/23 07:41:48;0.00;0.00;0.62;0.00;0.00;0.62;2.90;2.60;;;29.00;27.50;;;;;;2257872;61;20833;-65
2023/05/23 07:44:33;0.00;0.00;0.62;0.00;0.00;0.62;3.03;2.53;;;29.00;27.50;;;;;;2257814;61;21035;-65
2023/05/23 07:47:18;0.00;0.00;0.62;0.00;0.00;0.62;2.57;2.17;;;29.00;27.50;;;;;;2256304;61;20410;-65
2023/05/23 07:50:06;0.00;0.00;0.62;0.00;0.00;0.62;3.13;2.47;;;29.00;27.50;;;;;;2257406;61;20443;-65
2023/05/23 07:52:52;0.00;0.00;0.62;0.00;0.00;0.62;3.20;2.90;;;29.00;27.50;;;;;;2260409;61;20431;-66
2023/05/23 07:55:43;0.00;0.00;0.62;0.00;0.00;0.62;2.77;2.50;;;29.00;27.50;;;;;;2259544;61;20466;-65
2023/05/23 07:58:28;0.00;0.00;0.62;0.00;0.00;0.62;3.20;2.90;;;29.00;27.50;;;;;;2257659;61;20453;-65
2023/05/23 08:01:12;0.00;0.00;0.62;0.00;0.00;0.62;2.90;2.60;;;29.00;27.60;;;;;;2256290;61;20365;-65
2023/05/23 08:04:26;0.00;0.00;0.62;0.00;0.00;0.62;2.93;2.70;;;29.00;27.50;;;;;;2260138;61;20424;-64
2023/05/23 08:07:12;0.00;0.00;0.62;0.00;0.00;0.62;3.43;2.60;;;29.00;27.50;;;;;;2260296;61;20388;-66
2023/05/23 08:10:07;0.00;0.00;0.62;0.00;0.00;0.62;3.57;3.17;;;29.00;27.50;;;;;;2256107;61;20424;-64
2023/05/23 08:12:52;0.00;0.00;0.62;0.00;0.00;0.62;3.83;3.00;;;29.00;27.50;;;;;;2257862;61;20415;-65
2023/05/23 08:15:37;0.00;0.00;0.62;0.00;0.00;0.62;3.07;2.77;;;29.00;27.50;;;;;;2304587;40;20410;-63
2023/05/23 08:18:31;0.00;0.00;0.62;0.00;0.00;0.62;3.13;2.63;;;29.00;27.50;;;;;;2258727;61;20771;-65
2023/05/23 08:21:16;0.00;0.00;0.62;0.00;0.00;0.62;3.50;2.93;;;29.00;27.50;;;;;;2259056;61;20358;-65
2023/05/23 08:24:01;0.00;0.00;0.62;0.00;0.00;0.62;3.33;2.93;;;29.00;27.50;;;;;;2261214;61;20933;-65
2023/05/23 08:26:48;0.00;0.00;0.62;0.00;0.00;0.62;3.63;3.33;;;29.00;27.50;;;;;;2486978;53;20410;-65
2023/05/23 08:29:34;0.00;0.00;0.62;0.00;0.00;0.62;3.10;2.80;;;29.00;27.50;;;;;;2251870;61;20367;-65
2023/05/23 08:32:20;0.00;0.00;0.62;0.00;0.00;0.62;5.87;3.33;;;28.90;27.40;;;;;;2251263;61;20359;-68
2023/05/23 08:35:06;0.00;0.00;0.62;0.00;0.00;0.62;3.47;2.70;;;28.90;27.40;;;;;;2252307;61;20794;-64
2023/05/23 08:37:51;0.00;0.00;0.62;0.00;0.00;0.62;3.23;2.80;;;28.90;27.40;;;;;;2254558;61;20403;-63
2023/05/23 08:40:37;0.00;0.00;0.62;0.00;0.00;0.62;4.07;2.77;;;29.00;27.40;;;;;;2251970;61;20378;-65
2023/05/23 08:43:28;0.00;0.00;0.62;0.00;0.00;0.62;3.20;2.90;;;28.90;27.40;;;;;;2252205;61;20495;-65
2023/05/23 08:46:14;0.00;0.00;0.62;0.00;0.00;0.62;3.93;3.50;;;28.90;27.40;;;;;;2250878;61;20923;-64
2023/05/23 08:49:01;0.00;0.00;0.62;0.00;0.00;0.62;4.00;2.97;;;28.90;27.40;;;;;;2252103;61;20975;-65
2023/05/23 08:51:50;0.00;0.00;0.62;0.00;0.00;0.62;3.40;3.10;;;28.90;27.40;;;;;;2252491;61;20363;-64
2023/05/23 08:54:39;0.00;0.00;0.62;0.00;0.00;0.62;3.47;3.17;;;28.90;27.40;;;;;;2253881;61;20382;-64
2023/05/23 08:57:25;0.00;0.00;0.62;0.00;0.00;0.62;3.50;3.20;;;28.90;27.40;;;;;;2252152;61;21024;-64
2023/05/23 09:00:17;0.00;0.00;0.62;0.00;0.00;0.62;3.33;3.00;;;28.90;27.40;;;;;;2251058;61;20495;-61
2023/05/23 09:03:03;0.00;0.00;0.62;0.00;0.00;0.62;4.40;3.17;;;28.90;27.40;;;;;;2251938;61;20371;-64
2023/05/23 09:06:15;0.00;0.00;0.62;0.00;0.00;0.62;3.93;3.53;;;28.90;27.40;;;;;;2252628;61;20927;-64
2023/05/23 09:09:00;0.00;0.00;0.62;0.00;0.00;0.62;3.30;2.93;;;28.90;27.40;;;;;;2250826;61;20371;-62
2023/05/23 09:11:45;0.00;0.00;0.62;0.00;0.00;0.62;4.40;3.13;;;28.90;27.30;;;;;;2252624;61;20418;-65
2023/05/23 09:14:31;0.00;0.00;0.62;0.00;0.00;0.62;3.87;3.03;;;28.90;27.30;;;;;;2256274;61;20412;-63
2023/05/23 09:17:21;0.00;0.00;0.62;0.00;0.00;0.62;3.70;3.23;;;28.90;27.30;;;;;;2259548;61;20415;-65
2023/05/23 09:20:13;0.00;0.00;0.62;0.00;0.00;0.62;3.50;2.77;;;28.90;27.30;;;;;;2259633;61;20377;-63
2023/05/23 09:23:05;0.00;0.00;0.62;0.00;0.00;0.62;4.00;3.23;;;28.90;27.30;;;;;;2256847;61;20418;-65
2023/05/23 09:25:50;0.00;0.00;0.62;0.00;0.00;0.62;3.70;2.93;;;28.80;27.80;;;;;;2258801;61;20841;-65
2023/05/23 09:28:37;0.00;0.00;0.62;0.00;0.00;0.62;4.00;3.60;;;28.80;27.20;;;;;;2259977;61;20360;-65
2023/05/23 09:31:27;0.00;0.00;0.62;0.00;0.00;0.62;3.83;3.20;;;28.80;27.20;;;;;;2259139;61;20369;-65
2023/05/23 09:34:13;0.00;0.00;0.62;0.00;0.00;0.62;3.80;3.40;;;28.80;27.20;;;;;;2260521;61;20412;-65
2023/05/23 09:36:58;0.00;0.00;0.62;0.00;0.00;0.62;3.60;3.30;;;28.90;27.30;;;;;;2259420;61;20916;-64
2023/05/23 09:39:46;0.00;0.00;0.62;0.00;0.00;0.62;3.30;3.00;;;28.80;27.20;;;;;;2259665;61;20766;-66
2023/05/23 09:42:33;0.00;0.00;0.62;0.00;0.00;0.62;3.87;3.47;;;28.80;27.20;;;;;;2260627;61;20489;-64
2023/05/23 09:45:17;0.00;0.00;0.62;0.00;0.00;0.62;4.50;3.37;;;28.80;27.20;;;;;;2259294;61;20861;-64
2023/05/23 09:48:02;0.00;0.00;0.62;0.00;0.00;0.62;3.80;2.90;;;28.80;27.20;;;;;;2260037;61;20374;-64
2023/05/23 09:50:50;0.00;0.00;0.62;0.00;0.00;0.62;3.73;3.40;;;28.80;27.20;;;;;;2259729;61;20391;-65
2023/05/23 09:53:36;0.00;0.00;0.62;0.00;0.00;0.62;4.00;3.30;;;28.80;27.20;;;;;;2259029;61;20947;-65
2023/05/23 09:56:23;0.00;0.00;0.62;0.00;0.00;0.62;3.77;2.67;;;28.80;27.20;;;;;;2260299;61;20901;-65
2023/05/23 09:59:12;0.00;0.00;0.62;0.00;0.00;0.62;3.60;3.20;;;28.80;27.20;;;;;;2259513;61;20356;-65
2023/05/23 10:01:59;0.00;0.00;0.62;0.00;0.00;0.62;3.33;3.00;;;28.80;27.10;;;;;;2260187;61;20407;-65
2023/05/23 10:04:44;0.00;0.00;0.62;0.00;0.00;0.62;4.20;3.23;;;28.80;27.10;;;;;;2260430;61;20388;-65
2023/05/23 10:07:31;0.00;0.00;0.62;0.00;0.00;0.62;3.87;2.80;;;28.80;27.10;;;;;;2259104;61;20402;-67
2023/05/23 10:10:18;0.00;0.00;0.62;0.00;0.00;0.62;4.40;3.27;;;28.70;27.00;;;;;;2260078;61;20838;-65
2023/05/23 10:13:05;0.00;0.00;0.62;0.00;0.00;0.62;3.67;2.83;;;28.70;27.00;;;;;;2259941;61;20365;-64
2023/05/23 10:15:52;0.00;0.00;0.62;0.00;0.00;0.62;3.50;2.67;;;28.80;27.10;;;;;;2485994;53;20775;-65
2023/05/23 10:18:42;0.00;0.00;0.62;0.00;0.00;0.62;2.73;2.37;;;28.70;27.00;;;;;;2252065;61;20362;-65
2023/05/23 10:21:34;0.00;0.00;0.62;0.00;0.00;0.62;2.60;2.40;;;28.70;27.00;;;;;;2251777;61;20379;-65
2023/05/23 10:24:23;0.00;0.00;0.62;0.00;0.00;0.62;3.57;2.47;;;28.70;27.00;;;;;;2259220;61;20436;-65
2023/05/23 10:27:08;0.00;0.00;0.62;0.00;0.00;0.62;3.30;2.60;;;28.70;27.00;;;;;;2256359;61;20381;-65
2023/05/23 10:29:53;0.00;0.00;0.62;0.00;0.00;0.62;3.10;2.60;;;28.70;27.00;;;;;;2255132;61;20365;-64
2023/05/23 10:32:39;0.00;0.00;0.62;0.00;0.00;0.62;2.90;2.50;;;28.70;27.50;;;;;;2256337;61;20775;-66
2023/05/23 10:35:37;0.00;0.00;0.62;0.00;0.00;0.62;3.33;2.70;;;28.70;27.00;;;;;;2256080;61;20914;-64
2023/05/23 10:38:37;0.00;0.00;0.62;0.00;0.00;0.62;3.37;2.87;;;28.70;26.90;;;;;;2255768;61;20412;-64
2023/05/23 10:41:32;0.00;0.00;0.62;0.00;0.00;0.62;3.43;2.67;;;28.70;27.00;;;;;;2256567;61;20401;-64
2023/05/23 10:44:25;0.00;0.00;0.62;0.00;0.00;0.62;4.00;2.83;;;28.70;26.90;;;;;;2255106;61;20404;-65
2023/05/23 10:47:11;0.00;0.00;0.62;0.00;0.00;0.62;3.60;2.30;;;28.70;27.00;;;;;;2256116;61;20389;-64
2023/05/23 10:49:56;0.00;0.00;0.62;0.00;0.00;0.62;3.13;2.60;;;28.70;27.00;;;;;;2256011;61;20361;-65
2023/05/23 10:52:42;0.00;0.00;0.62;0.00;0.00;0.62;3.17;2.63;;;28.70;26.90;;;;;;2254966;61;20361;-68
2023/05/23 10:55:31;0.00;0.00;0.62;0.00;0.00;0.62;3.77;2.37;;;28.70;26.90;;;;;;2256362;61;20386;-65
2023/05/23 10:58:20;0.00;0.00;0.62;0.00;0.00;0.62;3.93;3.17;;;28.60;26.90;;;;;;2255684;61;20450;-67
2023/05/23 11:01:07;0.00;0.00;0.62;0.00;0.00;0.62;3.20;2.73;;;28.60;26.90;;;;;;2255220;61;20397;-65